sensor_id;sensor_type;location;lat;lon;timestamp;temperature;humidity
46217;DHT22;47258;59.424;13.482;2023-09-07T00:01:30;14.70;99.90
46217;DHT22;47258;59.424;13.482;2023-09-07T00:03:57;14.60;99.90
46217;DHT22;47258;59.424;13.482;2023-09-07T00:06:24;14.60;99.90
46217;DHT22;47258;59.424;13.482;2023-09-07T00:08:52;14.50;99.90
46217;DHT22;47258;59.424;13.482;2023-09-07T00:11:19;14.50;99.90
46217;DHT22;47258;59.424;13.482;2023-09-07T00:13:46;14.40;99.90
46217;DHT22;47258;59.424;13.482;2023-09-07T00:16:13;14.40;99.90
46217;DHT22;47258;59.424;13.482;2023-09-07T00:18:40;14.40;99.90
46217;DHT22;47258;59.424;13.482;2023-09-07T00:21:07;14.30;99.90
46217;DHT22;47258;59.424;13.482;2023-09-07T00:23:34;14.30;99.90
46217;DHT22;47258;59.424;13.482;2023-09-07T00:26:02;14.30;99.90
46217;DHT22;47258;59.424;13.482;2023-09-07T00:28:29;14.20;99.90
46217;DHT22;47258;59.424;13.482;2023-09-07T00:30:56;14.20;99.90
46217;DHT22;47258;59.424;13.482;2023-09-07T00:33:23;14.30;99.90
46217;DHT22;47258;59.424;13.482;2023-09-07T00:35:50;14.30;99.90
46217;DHT22;47258;59.424;13.482;2023-09-07T00:38:17;14.30;99.90
46217;DHT22;47258;59.424;13.482;2023-09-07T00:40:44;14.30;99.90
46217;DHT22;47258;59.424;13.482;2023-09-07T00:43:13;14.30;99.90
46217;DHT22;47258;59.424;13.482;2023-09-07T00:45:40;14.30;99.90
46217;DHT22;47258;59.424;13.482;2023-09-07T00:48:07;14.20;99.90
46217;DHT22;47258;59.424;13.482;2023-09-07T00:50:35;14.20;99.90
46217;DHT22;47258;59.424;13.482;2023-09-07T00:53:02;14.20;99.90
46217;DHT22;47258;59.424;13.482;2023-09-07T00:55:33;14.20;99.90
46217;DHT22;47258;59.424;13.482;2023-09-07T00:58:00;14.20;99.90
46217;DHT22;47258;59.424;13.482;2023-09-07T01:00:30;14.20;99.90
46217;DHT22;47258;59.424;13.482;2023-09-07T01:02:57;14.20;99.90
46217;DHT22;47258;59.424;13.482;2023-09-07T01:05:29;14.20;99.90
46217;DHT22;47258;59.424;13.482;2023-09-07T01:08:00;14.20;99.90
46217;DHT22;47258;59.424;13.482;2023-09-07T01:10:30;14.20;99.90
46217;DHT22;47258;59.424;13.482;2023-09-07T01:12:57;14.20;99.90
46217;DHT22;47258;59.424;13.482;2023-09-07T01:15:24;14.10;99.90
46217;DHT22;47258;59.424;13.482;2023-09-07T01:17:52;14.10;99.90
46217;DHT22;47258;59.424;13.482;2023-09-07T01:20:20;14.20;99.90
46217;DHT22;47258;59.424;13.482;2023-09-07T01:22:49;14.20;99.90
46217;DHT22;47258;59.424;13.482;2023-09-07T01:25:17;14.30;99.90
46217;DHT22;47258;59.424;13.482;2023-09-07T01:27:44;14.30;99.90
46217;DHT22;47258;59.424;13.482;2023-09-07T01:30:12;14.30;99.90
46217;DHT22;47258;59.424;13.482;2023-09-07T01:32:39;14.30;99.90
46217;DHT22;47258;59.424;13.482;2023-09-07T01:35:06;14.30;99.90
46217;DHT22;47258;59.424;13.482;2023-09-07T01:37:36;14.30;99.90
46217;DHT22;47258;59.424;13.482;2023-09-07T01:40:06;14.30;99.90
46217;DHT22;47258;59.424;13.482;2023-09-07T01:42:34;14.30;99.90
46217;DHT22;47258;59.424;13.482;2023-09-07T01:45:01;14.20;99.90
46217;DHT22;47258;59.424;13.482;2023-09-07T01:47:28;14.30;99.90
46217;DHT22;47258;59.424;13.482;2023-09-07T01:49:55;14.30;99.90
46217;DHT22;47258;59.424;13.482;2023-09-07T01:52:22;14.30;99.90
46217;DHT22;47258;59.424;13.482;2023-09-07T01:54:49;14.30;99.90
46217;DHT22;47258;59.424;13.482;2023-09-07T01:57:17;14.30;99.90
46217;DHT22;47258;59.424;13.482;2023-09-07T01:59:44;14.30;99.90
46217;DHT22;47258;59.424;13.482;2023-09-07T02:02:12;14.30;99.90
46217;DHT22;47258;59.424;13.482;2023-09-07T02:04:39;14.40;99.90
46217;DHT22;47258;59.424;13.482;2023-09-07T02:07:06;14.40;99.90
46217;DHT22;47258;59.424;13.482;2023-09-07T02:09:33;14.50;99.90
46217;DHT22;47258;59.424;13.482;2023-09-07T02:12:00;14.50;99.90
46217;DHT22;47258;59.424;13.482;2023-09-07T02:14:30;14.50;99.90
46217;DHT22;47258;59.424;13.482;2023-09-07T02:16:57;14.50;99.90
46217;DHT22;47258;59.424;13.482;2023-09-07T02:19:23;14.50;99.90
46217;DHT22;47258;59.424;13.482;2023-09-07T02:21:51;14.60;99.90
46217;DHT22;47258;59.424;13.482;2023-09-07T02:24:18;14.60;99.90
46217;DHT22;47258;59.424;13.482;2023-09-07T02:26:45;14.60;99.90
46217;DHT22;47258;59.424;13.482;2023-09-07T02:29:12;14.60;99.90
46217;DHT22;47258;59.424;13.482;2023-09-07T02:31:40;14.70;99.90
46217;DHT22;47258;59.424;13.482;2023-09-07T02:34:07;14.70;99.90
46217;DHT22;47258;59.424;13.482;2023-09-07T02:36:34;14.70;99.90
46217;DHT22;47258;59.424;13.482;2023-09-07T02:39:02;14.80;99.90
46217;DHT22;47258;59.424;13.482;2023-09-07T02:41:31;14.80;99.90
46217;DHT22;47258;59.424;13.482;2023-09-07T02:43:58;14.90;99.90
46217;DHT22;47258;59.424;13.482;2023-09-07T02:46:25;14.90;99.90
46217;DHT22;47258;59.424;13.482;2023-09-07T02:48:53;14.90;99.90
46217;DHT22;47258;59.424;13.482;2023-09-07T02:51:22;15.00;99.90
46217;DHT22;47258;59.424;13.482;2023-09-07T02:53:49;15.00;99.90
46217;DHT22;47258;59.424;13.482;2023-09-07T02:56:16;15.00;99.90
46217;DHT22;47258;59.424;13.482;2023-09-07T02:58:43;15.10;99.90
46217;DHT22;47258;59.424;13.482;2023-09-07T03:01:11;15.10;99.90
46217;DHT22;47258;59.424;13.482;2023-09-07T03:03:39;15.20;99.90
46217;DHT22;47258;59.424;13.482;2023-09-07T03:06:10;15.20;99.90
46217;DHT22;47258;59.424;13.482;2023-09-07T03:08:37;15.20;99.90
46217;DHT22;47258;59.424;13.482;2023-09-07T03:11:04;15.30;99.90
46217;DHT22;47258;59.424;13.482;2023-09-07T03:13:31;15.30;99.90
46217;DHT22;47258;59.424;13.482;2023-09-07T03:15:58;15.40;99.90
46217;DHT22;47258;59.424;13.482;2023-09-07T03:18:25;15.40;99.90
46217;DHT22;47258;59.424;13.482;2023-09-07T03:20:54;15.50;99.90
46217;DHT22;47258;59.424;13.482;2023-09-07T03:23:22;15.50;99.90
46217;DHT22;47258;59.424;13.482;2023-09-07T03:25:49;15.60;99.90
46217;DHT22;47258;59.424;13.482;2023-09-07T03:28:16;15.70;99.90
46217;DHT22;47258;59.424;13.482;2023-09-07T03:30:43;15.70;99.90
46217;DHT22;47258;59.424;13.482;2023-09-07T03:33:10;15.80;99.90
46217;DHT22;47258;59.424;13.482;2023-09-07T03:35:37;15.80;99.90
46217;DHT22;47258;59.424;13.482;2023-09-07T03:38:04;15.90;99.90
46217;DHT22;47258;59.424;13.482;2023-09-07T03:40:32;16.00;99.90
46217;DHT22;47258;59.424;13.482;2023-09-07T03:42:59;16.00;99.90
46217;DHT22;47258;59.424;13.482;2023-09-07T03:45:26;16.10;99.90
46217;DHT22;47258;59.424;13.482;2023-09-07T03:47:53;16.20;99.90
46217;DHT22;47258;59.424;13.482;2023-09-07T03:50:20;16.20;99.90
46217;DHT22;47258;59.424;13.482;2023-09-07T03:52:47;16.20;99.90
46217;DHT22;47258;59.424;13.482;2023-09-07T03:55:14;16.30;99.90
46217;DHT22;47258;59.424;13.482;2023-09-07T03:57:43;16.30;99.90
46217;DHT22;47258;59.424;13.482;2023-09-07T04:00:11;16.40;99.90
46217;DHT22;47258;59.424;13.482;2023-09-07T04:02:38;16.40;99.90
46217;DHT22;47258;59.424;13.482;2023-09-07T04:05:05;16.40;99.90
46217;DHT22;47258;59.424;13.482;2023-09-07T04:07:33;16.50;99.90
46217;DHT22;47258;59.424;13.482;2023-09-07T04:09:59;16.50;99.90
46217;DHT22;47258;59.424;13.482;2023-09-07T04:12:26;16.60;99.90
46217;DHT22;47258;59.424;13.482;2023-09-07T04:14:55;16.60;99.90
46217;DHT22;47258;59.424;13.482;2023-09-07T04:17:22;16.60;99.90
46217;DHT22;47258;59.424;13.482;2023-09-07T04:19:48;16.60;99.90
46217;DHT22;47258;59.424;13.482;2023-09-07T04:22:15;16.70;99.90
46217;DHT22;47258;59.424;13.482;2023-09-07T04:24:42;16.70;99.90
46217;DHT22;47258;59.424;13.482;2023-09-07T04:27:09;16.70;99.90
46217;DHT22;47258;59.424;13.482;2023-09-07T04:29:36;16.70;99.90
46217;DHT22;47258;59.424;13.482;2023-09-07T04:32:05;16.70;99.90
46217;DHT22;47258;59.424;13.482;2023-09-07T04:34:32;16.70;99.90
46217;DHT22;47258;59.424;13.482;2023-09-07T04:36:59;16.70;99.90
46217;DHT22;47258;59.424;13.482;2023-09-07T04:39:25;16.70;99.90
46217;DHT22;47258;59.424;13.482;2023-09-07T04:41:52;16.80;99.90
46217;DHT22;47258;59.424;13.482;2023-09-07T04:44:19;16.80;99.90
46217;DHT22;47258;59.424;13.482;2023-09-07T04:46:46;16.80;99.90
46217;DHT22;47258;59.424;13.482;2023-09-07T04:49:15;16.80;99.90
46217;DHT22;47258;59.424;13.482;2023-09-07T04:51:42;16.80;99.90
46217;DHT22;47258;59.424;13.482;2023-09-07T04:54:08;16.80;99.90
46217;DHT22;47258;59.424;13.482;2023-09-07T04:56:36;16.80;99.90
46217;DHT22;47258;59.424;13.482;2023-09-07T04:59:02;16.80;99.90
46217;DHT22;47258;59.424;13.482;2023-09-07T05:01:29;16.80;99.90
46217;DHT22;47258;59.424;13.482;2023-09-07T05:03:57;16.80;99.90
46217;DHT22;47258;59.424;13.482;2023-09-07T05:06:26;16.80;99.90
46217;DHT22;47258;59.424;13.482;2023-09-07T05:08:53;16.80;99.90
46217;DHT22;47258;59.424;13.482;2023-09-07T05:11:20;16.80;99.90
46217;DHT22;47258;59.424;13.482;2023-09-07T05:13:47;16.80;99.90
46217;DHT22;47258;59.424;13.482;2023-09-07T05:16:13;16.80;99.90
46217;DHT22;47258;59.424;13.482;2023-09-07T05:18:40;16.80;99.90
46217;DHT22;47258;59.424;13.482;2023-09-07T05:21:12;16.80;99.90
46217;DHT22;47258;59.424;13.482;2023-09-07T05:23:40;16.90;99.90
46217;DHT22;47258;59.424;13.482;2023-09-07T05:26:07;16.90;99.90
46217;DHT22;47258;59.424;13.482;2023-09-07T05:28:34;16.90;99.90
46217;DHT22;47258;59.424;13.482;2023-09-07T05:31:01;16.90;99.90
46217;DHT22;47258;59.424;13.482;2023-09-07T05:33:29;16.90;99.90
46217;DHT22;47258;59.424;13.482;2023-09-07T05:35:56;16.80;99.90
46217;DHT22;47258;59.424;13.482;2023-09-07T05:38:23;16.80;99.90
46217;DHT22;47258;59.424;13.482;2023-09-07T05:40:51;16.80;99.90
46217;DHT22;47258;59.424;13.482;2023-09-07T05:43:20;16.80;99.90
46217;DHT22;47258;59.424;13.482;2023-09-07T05:45:47;16.70;99.90
46217;DHT22;47258;59.424;13.482;2023-09-07T05:48:14;16.70;99.90
46217;DHT22;47258;59.424;13.482;2023-09-07T05:50:42;16.70;99.90
46217;DHT22;47258;59.424;13.482;2023-09-07T05:53:10;16.70;99.90
46217;DHT22;47258;59.424;13.482;2023-09-07T05:55:36;16.70;99.90
46217;DHT22;47258;59.424;13.482;2023-09-07T05:58:06;16.70;99.90
46217;DHT22;47258;59.424;13.482;2023-09-07T06:00:34;16.70;99.90
46217;DHT22;47258;59.424;13.482;2023-09-07T06:03:02;16.70;99.90
46217;DHT22;47258;59.424;13.482;2023-09-07T06:05:29;16.80;99.90
46217;DHT22;47258;59.424;13.482;2023-09-07T06:07:56;16.80;99.90
46217;DHT22;47258;59.424;13.482;2023-09-07T06:10:23;16.80;99.90
46217;DHT22;47258;59.424;13.482;2023-09-07T06:12:50;16.80;99.90
46217;DHT22;47258;59.424;13.482;2023-09-07T06:15:18;16.70;99.90
46217;DHT22;47258;59.424;13.482;2023-09-07T06:17:45;16.70;99.90
46217;DHT22;47258;59.424;13.482;2023-09-07T06:20:12;16.70;99.90
46217;DHT22;47258;59.424;13.482;2023-09-07T06:22:39;16.70;99.90
46217;DHT22;47258;59.424;13.482;2023-09-07T06:25:07;16.70;99.90
46217;DHT22;47258;59.424;13.482;2023-09-07T06:27:34;16.70;99.90
46217;DHT22;47258;59.424;13.482;2023-09-07T06:30:01;16.70;99.90
46217;DHT22;47258;59.424;13.482;2023-09-07T06:32:30;16.70;99.90
46217;DHT22;47258;59.424;13.482;2023-09-07T06:34:58;16.70;99.90
46217;DHT22;47258;59.424;13.482;2023-09-07T06:37:25;16.80;99.90
46217;DHT22;47258;59.424;13.482;2023-09-07T06:39:52;16.80;99.90
46217;DHT22;47258;59.424;13.482;2023-09-07T06:42:19;16.70;99.90
46217;DHT22;47258;59.424;13.482;2023-09-07T06:44:46;16.70;99.90
46217;DHT22;47258;59.424;13.482;2023-09-07T06:47:13;16.70;99.90
46217;DHT22;47258;59.424;13.482;2023-09-07T06:49:41;16.80;99.90
46217;DHT22;47258;59.424;13.482;2023-09-07T06:52:08;16.70;99.90
46217;DHT22;47258;59.424;13.482;2023-09-07T06:54:35;16.70;99.90
46217;DHT22;47258;59.424;13.482;2023-09-07T06:57:02;16.70;99.90
46217;DHT22;47258;59.424;13.482;2023-09-07T06:59:29;16.70;99.90
46217;DHT22;47258;59.424;13.482;2023-09-07T07:01:56;16.70;99.90
46217;DHT22;47258;59.424;13.482;2023-09-07T07:04:25;16.80;99.90
46217;DHT22;47258;59.424;13.482;2023-09-07T07:06:54;16.80;99.90
46217;DHT22;47258;59.424;13.482;2023-09-07T07:09:21;16.90;99.90
46217;DHT22;47258;59.424;13.482;2023-09-07T07:11:48;16.80;99.90
46217;DHT22;47258;59.424;13.482;2023-09-07T07:14:15;16.90;99.90
46217;DHT22;47258;59.424;13.482;2023-09-07T07:16:42;16.90;99.90
46217;DHT22;47258;59.424;13.482;2023-09-07T07:19:09;16.80;99.90
46217;DHT22;47258;59.424;13.482;2023-09-07T07:21:36;16.80;99.90
46217;DHT22;47258;59.424;13.482;2023-09-07T07:24:05;16.90;99.90
46217;DHT22;47258;59.424;13.482;2023-09-07T07:26:33;17.00;99.90
46217;DHT22;47258;59.424;13.482;2023-09-07T07:29:00;17.00;99.90
46217;DHT22;47258;59.424;13.482;2023-09-07T07:31:27;17.00;99.90
46217;DHT22;47258;59.424;13.482;2023-09-07T07:33:54;17.10;99.90
46217;DHT22;47258;59.424;13.482;2023-09-07T07:36:21;17.10;99.90
46217;DHT22;47258;59.424;13.482;2023-09-07T07:38:48;17.20;99.90
46217;DHT22;47258;59.424;13.482;2023-09-07T07:41:16;17.10;99.90
46217;DHT22;47258;59.424;13.482;2023-09-07T07:43:43;17.20;99.90
46217;DHT22;47258;59.424;13.482;2023-09-07T07:46:10;17.20;99.90
46217;DHT22;47258;59.424;13.482;2023-09-07T07:48:37;17.30;99.90
46217;DHT22;47258;59.424;13.482;2023-09-07T07:51:04;17.30;99.90
46217;DHT22;47258;59.424;13.482;2023-09-07T07:53:31;17.40;99.90
46217;DHT22;47258;59.424;13.482;2023-09-07T07:55:58;17.40;99.90
46217;DHT22;47258;59.424;13.482;2023-09-07T07:58:26;17.40;99.90
46217;DHT22;47258;59.424;13.482;2023-09-07T08:00:53;17.50;99.90
46217;DHT22;47258;59.424;13.482;2023-09-07T08:03:23;17.60;99.90
46217;DHT22;47258;59.424;13.482;2023-09-07T08:05:50;17.60;99.90
46217;DHT22;47258;59.424;13.482;2023-09-07T08:08:17;17.60;99.90
46217;DHT22;47258;59.424;13.482;2023-09-07T08:10:44;17.60;99.90
46217;DHT22;47258;59.424;13.482;2023-09-07T08:13:12;17.60;99.90
46217;DHT22;47258;59.424;13.482;2023-09-07T08:15:41;17.70;99.90
46217;DHT22;47258;59.424;13.482;2023-09-07T08:18:08;17.70;99.90
46217;DHT22;47258;59.424;13.482;2023-09-07T08:20:35;17.80;99.90
46217;DHT22;47258;59.424;13.482;2023-09-07T08:23:04;17.80;99.90
46217;DHT22;47258;59.424;13.482;2023-09-07T08:25:34;17.90;99.90
46217;DHT22;47258;59.424;13.482;2023-09-07T08:28:00;17.90;99.90
46217;DHT22;47258;59.424;13.482;2023-09-07T08:30:31;18.00;99.90
46217;DHT22;47258;59.424;13.482;2023-09-07T08:32:59;18.00;99.90
46217;DHT22;47258;59.424;13.482;2023-09-07T08:35:27;18.00;99.90
46217;DHT22;47258;59.424;13.482;2023-09-07T08:37:54;18.00;99.90
46217;DHT22;47258;59.424;13.482;2023-09-07T08:40:23;18.00;99.90
46217;DHT22;47258;59.424;13.482;2023-09-07T08:42:53;18.00;99.90
46217;DHT22;47258;59.424;13.482;2023-09-07T08:45:22;18.10;99.90
46217;DHT22;47258;59.424;13.482;2023-09-07T08:47:49;18.10;99.90
46217;DHT22;47258;59.424;13.482;2023-09-07T08:50:18;18.10;99.90
46217;DHT22;47258;59.424;13.482;2023-09-07T08:52:46;18.00;99.90
46217;DHT22;47258;59.424;13.482;2023-09-07T08:55:15;18.10;99.90
46217;DHT22;47258;59.424;13.482;2023-09-07T08:57:42;18.10;99.90
46217;DHT22;47258;59.424;13.482;2023-09-07T09:00:10;18.10;99.90
46217;DHT22;47258;59.424;13.482;2023-09-07T09:02:41;18.10;99.90
46217;DHT22;47258;59.424;13.482;2023-09-07T09:05:09;18.10;99.90
46217;DHT22;47258;59.424;13.482;2023-09-07T09:07:38;18.20;99.90
46217;DHT22;47258;59.424;13.482;2023-09-07T09:10:06;18.10;99.90
46217;DHT22;47258;59.424;13.482;2023-09-07T09:12:33;18.10;99.90
46217;DHT22;47258;59.424;13.482;2023-09-07T09:15:01;18.10;99.90
46217;DHT22;47258;59.424;13.482;2023-09-07T09:17:29;18.20;99.90
46217;DHT22;47258;59.424;13.482;2023-09-07T09:19:56;18.20;99.90
46217;DHT22;47258;59.424;13.482;2023-09-07T09:22:23;18.20;99.90
46217;DHT22;47258;59.424;13.482;2023-09-07T09:24:52;18.30;99.90
46217;DHT22;47258;59.424;13.482;2023-09-07T09:27:19;18.40;99.90
46217;DHT22;47258;59.424;13.482;2023-09-07T09:29:49;18.40;99.90
46217;DHT22;47258;59.424;13.482;2023-09-07T09:32:16;18.40;99.90
46217;DHT22;47258;59.424;13.482;2023-09-07T09:34:43;18.50;99.90
46217;DHT22;47258;59.424;13.482;2023-09-07T09:37:14;18.50;99.90
46217;DHT22;47258;59.424;13.482;2023-09-07T09:39:42;18.50;99.90
46217;DHT22;47258;59.424;13.482;2023-09-07T09:42:12;18.50;99.90
46217;DHT22;47258;59.424;13.482;2023-09-07T09:44:40;18.60;99.90
46217;DHT22;47258;59.424;13.482;2023-09-07T09:47:08;18.60;99.90
46217;DHT22;47258;59.424;13.482;2023-09-07T09:49:35;18.60;99.90
46217;DHT22;47258;59.424;13.482;2023-09-07T09:52:04;18.70;99.90
46217;DHT22;47258;59.424;13.482;2023-09-07T09:54:34;18.70;99.90
46217;DHT22;47258;59.424;13.482;2023-09-07T09:57:02;18.60;99.90
46217;DHT22;47258;59.424;13.482;2023-09-07T09:59:30;18.60;99.90
46217;DHT22;47258;59.424;13.482;2023-09-07T10:01:57;18.60;99.90
46217;DHT22;47258;59.424;13.482;2023-09-07T10:04:26;18.70;99.90
46217;DHT22;47258;59.424;13.482;2023-09-07T10:06:55;18.70;99.90
46217;DHT22;47258;59.424;13.482;2023-09-07T10:09:23;18.80;99.90
46217;DHT22;47258;59.424;13.482;2023-09-07T10:11:53;18.80;99.90
46217;DHT22;47258;59.424;13.482;2023-09-07T10:14:21;18.90;99.90
46217;DHT22;47258;59.424;13.482;2023-09-07T10:16:51;18.90;99.90
46217;DHT22;47258;59.424;13.482;2023-09-07T10:19:21;19.00;99.90
46217;DHT22;47258;59.424;13.482;2023-09-07T10:21:49;19.00;99.90
46217;DHT22;47258;59.424;13.482;2023-09-07T10:24:26;19.10;99.90
46217;DHT22;47258;59.424;13.482;2023-09-07T10:26:58;19.20;99.90
46217;DHT22;47258;59.424;13.482;2023-09-07T10:29:25;19.20;99.90
46217;DHT22;47258;59.424;13.482;2023-09-07T10:31:54;19.20;99.90
46217;DHT22;47258;59.424;13.482;2023-09-07T10:34:21;19.30;99.90
46217;DHT22;47258;59.424;13.482;2023-09-07T10:36:56;19.40;99.90
46217;DHT22;47258;59.424;13.482;2023-09-07T10:39:23;19.30;99.90
46217;DHT22;47258;59.424;13.482;2023-09-07T10:41:50;19.30;99.90
46217;DHT22;47258;59.424;13.482;2023-09-07T10:44:15;19.40;99.90
46217;DHT22;47258;59.424;13.482;2023-09-07T10:46:51;19.50;99.90
46217;DHT22;47258;59.424;13.482;2023-09-07T10:49:19;19.50;99.90
46217;DHT22;47258;59.424;13.482;2023-09-07T10:51:47;19.50;99.90
46217;DHT22;47258;59.424;13.482;2023-09-07T10:54:15;19.50;99.90
46217;DHT22;47258;59.424;13.482;2023-09-07T10:56:44;19.50;99.90
46217;DHT22;47258;59.424;13.482;2023-09-07T10:59:12;19.60;99.90
46217;DHT22;47258;59.424;13.482;2023-09-07T11:01:39;19.60;99.90
46217;DHT22;47258;59.424;13.482;2023-09-07T11:04:06;19.60;99.90
46217;DHT22;47258;59.424;13.482;2023-09-07T11:06:38;19.70;99.90
46217;DHT22;47258;59.424;13.482;2023-09-07T11:09:06;19.70;99.90
46217;DHT22;47258;59.424;13.482;2023-09-07T11:11:35;19.70;99.90
46217;DHT22;47258;59.424;13.482;2023-09-07T11:14:02;19.70;99.90
46217;DHT22;47258;59.424;13.482;2023-09-07T11:16:30;19.70;99.90
46217;DHT22;47258;59.424;13.482;2023-09-07T11:19:03;19.70;99.90
46217;DHT22;47258;59.424;13.482;2023-09-07T11:21:30;19.60;99.90
46217;DHT22;47258;59.424;13.482;2023-09-07T11:23:59;19.70;99.90
46217;DHT22;47258;59.424;13.482;2023-09-07T11:26:26;19.70;99.90
46217;DHT22;47258;59.424;13.482;2023-09-07T11:28:53;19.70;99.90
46217;DHT22;47258;59.424;13.482;2023-09-07T11:31:23;19.70;99.90
46217;DHT22;47258;59.424;13.482;2023-09-07T11:33:50;19.70;99.90
46217;DHT22;47258;59.424;13.482;2023-09-07T11:36:17;19.80;99.90
46217;DHT22;47258;59.424;13.482;2023-09-07T11:38:44;19.90;99.90
46217;DHT22;47258;59.424;13.482;2023-09-07T11:41:13;19.90;99.90
46217;DHT22;47258;59.424;13.482;2023-09-07T11:43:40;19.90;99.90
46217;DHT22;47258;59.424;13.482;2023-09-07T11:46:07;19.90;99.90
46217;DHT22;47258;59.424;13.482;2023-09-07T11:48:34;19.90;99.90
46217;DHT22;47258;59.424;13.482;2023-09-07T11:51:01;19.90;99.90
46217;DHT22;47258;59.424;13.482;2023-09-07T11:53:28;20.00;99.90
46217;DHT22;47258;59.424;13.482;2023-09-07T11:55:56;20.00;99.90
46217;DHT22;47258;59.424;13.482;2023-09-07T11:58:25;20.10;99.90
46217;DHT22;47258;59.424;13.482;2023-09-07T12:00:53;20.10;99.90
46217;DHT22;47258;59.424;13.482;2023-09-07T12:03:20;20.00;99.90
46217;DHT22;47258;59.424;13.482;2023-09-07T12:05:47;20.00;99.90
46217;DHT22;47258;59.424;13.482;2023-09-07T12:08:14;20.00;99.90
46217;DHT22;47258;59.424;13.482;2023-09-07T12:10:41;20.00;99.90
46217;DHT22;47258;59.424;13.482;2023-09-07T12:13:08;20.00;99.90
46217;DHT22;47258;59.424;13.482;2023-09-07T12:15:37;20.00;99.90
46217;DHT22;47258;59.424;13.482;2023-09-07T12:18:04;20.10;99.90
46217;DHT22;47258;59.424;13.482;2023-09-07T12:20:31;20.10;99.90
46217;DHT22;47258;59.424;13.482;2023-09-07T12:23:00;20.10;99.90
46217;DHT22;47258;59.424;13.482;2023-09-07T12:25:27;20.20;99.90
46217;DHT22;47258;59.424;13.482;2023-09-07T12:27:54;20.10;99.90
46217;DHT22;47258;59.424;13.482;2023-09-07T12:30:22;20.20;99.90
46217;DHT22;47258;59.424;13.482;2023-09-07T12:32:51;20.20;99.90
46217;DHT22;47258;59.424;13.482;2023-09-07T12:35:18;20.30;99.90
46217;DHT22;47258;59.424;13.482;2023-09-07T12:37:46;20.30;99.90
46217;DHT22;47258;59.424;13.482;2023-09-07T12:40:13;20.30;99.90
46217;DHT22;47258;59.424;13.482;2023-09-07T12:42:40;20.30;99.90
46217;DHT22;47258;59.424;13.482;2023-09-07T12:45:08;20.30;99.90
46217;DHT22;47258;59.424;13.482;2023-09-07T12:47:36;20.30;99.90
46217;DHT22;47258;59.424;13.482;2023-09-07T12:50:06;20.30;99.90
46217;DHT22;47258;59.424;13.482;2023-09-07T12:52:33;20.30;99.90
46217;DHT22;47258;59.424;13.482;2023-09-07T12:55:01;20.40;99.90
46217;DHT22;47258;59.424;13.482;2023-09-07T12:57:28;20.40;99.90
46217;DHT22;47258;59.424;13.482;2023-09-07T12:59:54;20.40;99.90
46217;DHT22;47258;59.424;13.482;2023-09-07T13:02:21;20.40;99.90
46217;DHT22;47258;59.424;13.482;2023-09-07T13:04:48;20.40;99.90
46217;DHT22;47258;59.424;13.482;2023-09-07T13:07:17;20.50;99.90
46217;DHT22;47258;59.424;13.482;2023-09-07T13:09:44;20.60;99.90
46217;DHT22;47258;59.424;13.482;2023-09-07T13:12:11;20.70;99.90
46217;DHT22;47258;59.424;13.482;2023-09-07T13:14:38;20.80;99.90
46217;DHT22;47258;59.424;13.482;2023-09-07T13:17:05;21.00;99.90
46217;DHT22;47258;59.424;13.482;2023-09-07T13:19:32;21.20;99.90
46217;DHT22;47258;59.424;13.482;2023-09-07T13:21:59;21.50;99.90
46217;DHT22;47258;59.424;13.482;2023-09-07T13:24:27;21.70;99.90
46217;DHT22;47258;59.424;13.482;2023-09-07T13:26:54;21.90;99.90
46217;DHT22;47258;59.424;13.482;2023-09-07T13:29:21;21.90;99.90
46217;DHT22;47258;59.424;13.482;2023-09-07T13:31:48;21.80;99.90
46217;DHT22;47258;59.424;13.482;2023-09-07T13:34:15;21.70;99.90
46217;DHT22;47258;59.424;13.482;2023-09-07T13:36:42;21.60;99.90
46217;DHT22;47258;59.424;13.482;2023-09-07T13:39:09;21.50;99.90
46217;DHT22;47258;59.424;13.482;2023-09-07T13:41:37;21.40;99.90
46217;DHT22;47258;59.424;13.482;2023-09-07T13:44:05;21.40;99.90
46217;DHT22;47258;59.424;13.482;2023-09-07T13:46:32;21.50;99.90
46217;DHT22;47258;59.424;13.482;2023-09-07T13:48:59;21.50;99.90
46217;DHT22;47258;59.424;13.482;2023-09-07T13:51:26;21.40;99.90
46217;DHT22;47258;59.424;13.482;2023-09-07T13:53:53;21.40;99.90
46217;DHT22;47258;59.424;13.482;2023-09-07T13:56:20;21.50;99.90
46217;DHT22;47258;59.424;13.482;2023-09-07T13:58:49;21.70;99.90
46217;DHT22;47258;59.424;13.482;2023-09-07T14:01:16;22.00;99.90
46217;DHT22;47258;59.424;13.482;2023-09-07T14:03:42;22.70;99.90
46217;DHT22;47258;59.424;13.482;2023-09-07T14:06:09;23.80;99.90
46217;DHT22;47258;59.424;13.482;2023-09-07T14:08:36;24.50;99.90
46217;DHT22;47258;59.424;13.482;2023-09-07T14:11:03;26.10;99.90
46217;DHT22;47258;59.424;13.482;2023-09-07T14:13:31;27.20;99.90
46217;DHT22;47258;59.424;13.482;2023-09-07T14:16:01;28.50;99.90
46217;DHT22;47258;59.424;13.482;2023-09-07T14:18:28;29.10;99.90
46217;DHT22;47258;59.424;13.482;2023-09-07T14:20:55;29.80;99.90
46217;DHT22;47258;59.424;13.482;2023-09-07T14:23:23;30.00;99.90
46217;DHT22;47258;59.424;13.482;2023-09-07T14:25:51;30.10;99.90
46217;DHT22;47258;59.424;13.482;2023-09-07T14:28:18;30.40;99.90
46217;DHT22;47258;59.424;13.482;2023-09-07T14:30:45;30.90;99.90
46217;DHT22;47258;59.424;13.482;2023-09-07T14:33:13;30.40;99.90
46217;DHT22;47258;59.424;13.482;2023-09-07T14:35:40;30.60;99.90
46217;DHT22;47258;59.424;13.482;2023-09-07T14:38:07;30.40;99.90
46217;DHT22;47258;59.424;13.482;2023-09-07T14:40:34;30.80;99.90
46217;DHT22;47258;59.424;13.482;2023-09-07T14:43:01;31.10;99.90
46217;DHT22;47258;59.424;13.482;2023-09-07T14:45:28;31.50;99.90
46217;DHT22;47258;59.424;13.482;2023-09-07T14:47:55;31.50;99.90
46217;DHT22;47258;59.424;13.482;2023-09-07T14:50:23;31.80;99.90
46217;DHT22;47258;59.424;13.482;2023-09-07T14:52:50;31.90;99.90
46217;DHT22;47258;59.424;13.482;2023-09-07T14:55:17;32.10;99.90
46217;DHT22;47258;59.424;13.482;2023-09-07T14:57:45;32.10;99.90
46217;DHT22;47258;59.424;13.482;2023-09-07T15:00:12;32.30;99.90
46217;DHT22;47258;59.424;13.482;2023-09-07T15:02:39;32.50;99.90
46217;DHT22;47258;59.424;13.482;2023-09-07T15:05:06;32.40;99.90
46217;DHT22;47258;59.424;13.482;2023-09-07T15:07:35;32.20;99.90
46217;DHT22;47258;59.424;13.482;2023-09-07T15:10:02;32.00;99.90
46217;DHT22;47258;59.424;13.482;2023-09-07T15:12:30;31.40;99.90
46217;DHT22;47258;59.424;13.482;2023-09-07T15:14:57;30.90;99.90
46217;DHT22;47258;59.424;13.482;2023-09-07T15:17:24;30.00;99.90